sensor_id;sensor_type;location;lat;lon;timestamp;temperature;humidity
70557;DHT22;58107;51.034;3.726;2022-07-06T00:02:10;18.30;62.40
70557;DHT22;58107;51.034;3.726;2022-07-06T00:04:37;18.30;62.40
70557;DHT22;58107;51.034;3.726;2022-07-06T00:07:04;18.30;62.50
70557;DHT22;58107;51.034;3.726;2022-07-06T00:09:32;18.30;62.50
70557;DHT22;58107;51.034;3.726;2022-07-06T00:11:59;18.30;62.80
70557;DHT22;58107;51.034;3.726;2022-07-06T00:14:26;18.40;62.00
70557;DHT22;58107;51.034;3.726;2022-07-06T00:16:53;18.40;61.90
70557;DHT22;58107;51.034;3.726;2022-07-06T00:19:20;18.30;62.70
70557;DHT22;58107;51.034;3.726;2022-07-06T00:21:47;18.20;63.50
70557;DHT22;58107;51.034;3.726;2022-07-06T00:24:14;18.10;63.90
70557;DHT22;58107;51.034;3.726;2022-07-06T00:26:43;18.10;64.50
70557;DHT22;58107;51.034;3.726;2022-07-06T00:29:10;18.10;64.70
70557;DHT22;58107;51.034;3.726;2022-07-06T00:31:37;18.00;64.60
70557;DHT22;58107;51.034;3.726;2022-07-06T00:34:04;17.90;65.30
70557;DHT22;58107;51.034;3.726;2022-07-06T00:36:31;17.80;65.90
70557;DHT22;58107;51.034;3.726;2022-07-06T00:38:58;17.80;65.80
70557;DHT22;58107;51.034;3.726;2022-07-06T00:41:25;17.80;65.90
70557;DHT22;58107;51.034;3.726;2022-07-06T00:43:57;17.80;65.60
70557;DHT22;58107;51.034;3.726;2022-07-06T00:46:27;17.80;65.40
70557;DHT22;58107;51.034;3.726;2022-07-06T00:48:55;17.90;65.30
70557;DHT22;58107;51.034;3.726;2022-07-06T00:51:22;17.90;65.40
70557;DHT22;58107;51.034;3.726;2022-07-06T00:53:50;17.80;65.70
70557;DHT22;58107;51.034;3.726;2022-07-06T00:56:17;17.60;66.40
70557;DHT22;58107;51.034;3.726;2022-07-06T00:58:45;17.30;67.80
70557;DHT22;58107;51.034;3.726;2022-07-06T01:01:12;17.00;69.20
70557;DHT22;58107;51.034;3.726;2022-07-06T01:03:38;16.80;70.10
70557;DHT22;58107;51.034;3.726;2022-07-06T01:06:05;16.90;70.00
70557;DHT22;58107;51.034;3.726;2022-07-06T01:08:32;16.90;69.60
70557;DHT22;58107;51.034;3.726;2022-07-06T01:11:00;17.00;69.10
70557;DHT22;58107;51.034;3.726;2022-07-06T01:13:28;17.10;68.80
70557;DHT22;58107;51.034;3.726;2022-07-06T01:15:56;17.10;68.30
70557;DHT22;58107;51.034;3.726;2022-07-06T01:18:24;17.10;68.50
70557;DHT22;58107;51.034;3.726;2022-07-06T01:21:03;17.10;68.40
70557;DHT22;58107;51.034;3.726;2022-07-06T01:23:20;17.00;68.40
70557;DHT22;58107;51.034;3.726;2022-07-06T01:25:47;17.00;68.40
70557;DHT22;58107;51.034;3.726;2022-07-06T01:28:13;17.00;68.50
70557;DHT22;58107;51.034;3.726;2022-07-06T01:30:40;17.00;68.50
70557;DHT22;58107;51.034;3.726;2022-07-06T01:33:07;17.00;68.30
70557;DHT22;58107;51.034;3.726;2022-07-06T01:35:34;17.10;68.00
70557;DHT22;58107;51.034;3.726;2022-07-06T01:38:02;17.20;68.00
70557;DHT22;58107;51.034;3.726;2022-07-06T01:40:29;17.10;68.00
70557;DHT22;58107;51.034;3.726;2022-07-06T01:42:56;17.10;68.00
70557;DHT22;58107;51.034;3.726;2022-07-06T01:45:23;17.30;67.50
70557;DHT22;58107;51.034;3.726;2022-07-06T01:47:51;17.40;66.80
70557;DHT22;58107;51.034;3.726;2022-07-06T01:50:18;17.50;66.40
70557;DHT22;58107;51.034;3.726;2022-07-06T01:52:45;17.50;66.20
70557;DHT22;58107;51.034;3.726;2022-07-06T01:55:12;17.50;66.20
70557;DHT22;58107;51.034;3.726;2022-07-06T01:57:39;17.50;66.20
70557;DHT22;58107;51.034;3.726;2022-07-06T02:00:07;17.60;66.00
70557;DHT22;58107;51.034;3.726;2022-07-06T02:02:34;17.60;65.80
70557;DHT22;58107;51.034;3.726;2022-07-06T02:05:01;17.60;66.70
70557;DHT22;58107;51.034;3.726;2022-07-06T02:07:28;17.60;66.10
70557;DHT22;58107;51.034;3.726;2022-07-06T02:09:55;17.50;66.50
70557;DHT22;58107;51.034;3.726;2022-07-06T02:12:22;17.40;67.10
70557;DHT22;58107;51.034;3.726;2022-07-06T02:14:49;17.30;67.40
70557;DHT22;58107;51.034;3.726;2022-07-06T02:17:16;17.30;67.30
70557;DHT22;58107;51.034;3.726;2022-07-06T02:19:43;17.40;67.30
70557;DHT22;58107;51.034;3.726;2022-07-06T02:22:10;17.30;67.40
70557;DHT22;58107;51.034;3.726;2022-07-06T02:24:37;17.30;67.70
70557;DHT22;58107;51.034;3.726;2022-07-06T02:27:04;17.20;68.00
70557;DHT22;58107;51.034;3.726;2022-07-06T02:29:31;17.20;68.20
70557;DHT22;58107;51.034;3.726;2022-07-06T02:31:58;17.10;68.30
70557;DHT22;58107;51.034;3.726;2022-07-06T02:34:25;17.00;68.50
70557;DHT22;58107;51.034;3.726;2022-07-06T02:36:52;17.00;68.80
70557;DHT22;58107;51.034;3.726;2022-07-06T02:39:19;16.80;69.20
70557;DHT22;58107;51.034;3.726;2022-07-06T02:41:45;16.70;70.10
70557;DHT22;58107;51.034;3.726;2022-07-06T02:44:12;16.60;70.60
70557;DHT22;58107;51.034;3.726;2022-07-06T02:46:39;16.70;70.60
70557;DHT22;58107;51.034;3.726;2022-07-06T02:49:06;16.60;70.60
70557;DHT22;58107;51.034;3.726;2022-07-06T02:51:33;16.70;70.90
70557;DHT22;58107;51.034;3.726;2022-07-06T02:54:00;16.60;71.10
70557;DHT22;58107;51.034;3.726;2022-07-06T02:56:27;16.70;71.40
70557;DHT22;58107;51.034;3.726;2022-07-06T02:58:54;16.70;71.20
70557;DHT22;58107;51.034;3.726;2022-07-06T03:01:21;16.70;71.10
70557;DHT22;58107;51.034;3.726;2022-07-06T03:03:48;16.60;71.30
70557;DHT22;58107;51.034;3.726;2022-07-06T03:06:15;16.60;71.40
70557;DHT22;58107;51.034;3.726;2022-07-06T03:08:42;16.70;71.40
70557;DHT22;58107;51.034;3.726;2022-07-06T03:11:09;16.60;71.40
70557;DHT22;58107;51.034;3.726;2022-07-06T03:13:36;16.60;71.60
70557;DHT22;58107;51.034;3.726;2022-07-06T03:16:03;16.60;71.70
70557;DHT22;58107;51.034;3.726;2022-07-06T03:18:31;16.60;71.50
70557;DHT22;58107;51.034;3.726;2022-07-06T03:20:59;16.60;71.40
70557;DHT22;58107;51.034;3.726;2022-07-06T03:23:26;16.60;71.20
70557;DHT22;58107;51.034;3.726;2022-07-06T03:25:53;16.50;71.40
70557;DHT22;58107;51.034;3.726;2022-07-06T03:28:20;16.50;71.40
70557;DHT22;58107;51.034;3.726;2022-07-06T03:30:47;16.50;71.40
70557;DHT22;58107;51.034;3.726;2022-07-06T03:33:14;16.30;72.00
70557;DHT22;58107;51.034;3.726;2022-07-06T03:35:42;16.20;72.50
70557;DHT22;58107;51.034;3.726;2022-07-06T03:38:09;16.20;72.90
70557;DHT22;58107;51.034;3.726;2022-07-06T03:40:36;16.20;72.90
70557;DHT22;58107;51.034;3.726;2022-07-06T03:43:03;16.10;72.90
70557;DHT22;58107;51.034;3.726;2022-07-06T03:45:30;16.00;73.10
70557;DHT22;58107;51.034;3.726;2022-07-06T03:47:57;15.80;74.20
70557;DHT22;58107;51.034;3.726;2022-07-06T03:50:24;15.70;75.10
70557;DHT22;58107;51.034;3.726;2022-07-06T03:52:51;15.60;75.80
70557;DHT22;58107;51.034;3.726;2022-07-06T03:55:18;15.50;76.30
70557;DHT22;58107;51.034;3.726;2022-07-06T03:57:45;15.50;76.30
70557;DHT22;58107;51.034;3.726;2022-07-06T04:00:12;15.60;76.00
70557;DHT22;58107;51.034;3.726;2022-07-06T04:02:39;15.70;75.70
70557;DHT22;58107;51.034;3.726;2022-07-06T04:05:06;15.70;75.30
70557;DHT22;58107;51.034;3.726;2022-07-06T04:07:33;15.70;75.60
70557;DHT22;58107;51.034;3.726;2022-07-06T04:10:00;15.70;75.40
70557;DHT22;58107;51.034;3.726;2022-07-06T04:12:27;15.60;75.50
70557;DHT22;58107;51.034;3.726;2022-07-06T04:14:56;15.70;75.90
70557;DHT22;58107;51.034;3.726;2022-07-06T04:17:23;15.60;75.60
70557;DHT22;58107;51.034;3.726;2022-07-06T04:20:08;15.60;75.50
70557;DHT22;58107;51.034;3.726;2022-07-06T04:22:38;15.50;76.00
70557;DHT22;58107;51.034;3.726;2022-07-06T04:25:06;15.40;76.40
70557;DHT22;58107;51.034;3.726;2022-07-06T04:27:33;15.50;76.60
70557;DHT22;58107;51.034;3.726;2022-07-06T04:30:00;15.40;76.50
70557;DHT22;58107;51.034;3.726;2022-07-06T04:32:27;15.50;76.60
70557;DHT22;58107;51.034;3.726;2022-07-06T04:34:54;15.50;76.40
70557;DHT22;58107;51.034;3.726;2022-07-06T04:37:21;15.50;76.40
70557;DHT22;58107;51.034;3.726;2022-07-06T04:39:48;15.50;76.30
70557;DHT22;58107;51.034;3.726;2022-07-06T04:42:15;15.60;75.80
70557;DHT22;58107;51.034;3.726;2022-07-06T04:44:42;15.70;75.50
70557;DHT22;58107;51.034;3.726;2022-07-06T04:47:09;15.60;75.70
70557;DHT22;58107;51.034;3.726;2022-07-06T04:49:36;15.50;76.00
70557;DHT22;58107;51.034;3.726;2022-07-06T04:52:03;15.50;76.00
70557;DHT22;58107;51.034;3.726;2022-07-06T04:54:30;15.50;76.10
70557;DHT22;58107;51.034;3.726;2022-07-06T04:56:57;15.40;76.20
70557;DHT22;58107;51.034;3.726;2022-07-06T04:59:24;15.50;76.20
70557;DHT22;58107;51.034;3.726;2022-07-06T05:01:51;15.60;75.70
70557;DHT22;58107;51.034;3.726;2022-07-06T05:04:18;15.80;75.00
70557;DHT22;58107;51.034;3.726;2022-07-06T05:06:46;15.90;74.70
70557;DHT22;58107;51.034;3.726;2022-07-06T05:09:14;16.00;74.30
70557;DHT22;58107;51.034;3.726;2022-07-06T05:11:41;16.00;74.20
70557;DHT22;58107;51.034;3.726;2022-07-06T05:14:08;16.00;74.30
70557;DHT22;58107;51.034;3.726;2022-07-06T05:16:35;16.00;74.50
70557;DHT22;58107;51.034;3.726;2022-07-06T05:19:02;16.00;74.70
70557;DHT22;58107;51.034;3.726;2022-07-06T05:21:29;15.90;74.80
70557;DHT22;58107;51.034;3.726;2022-07-06T05:23:56;15.80;75.00
70557;DHT22;58107;51.034;3.726;2022-07-06T05:26:23;15.70;75.70
70557;DHT22;58107;51.034;3.726;2022-07-06T05:28:50;15.60;76.50
70557;DHT22;58107;51.034;3.726;2022-07-06T05:31:17;15.70;76.40
70557;DHT22;58107;51.034;3.726;2022-07-06T05:33:44;15.80;76.10
70557;DHT22;58107;51.034;3.726;2022-07-06T05:36:11;15.90;75.80
70557;DHT22;58107;51.034;3.726;2022-07-06T05:38:38;16.00;75.30
70557;DHT22;58107;51.034;3.726;2022-07-06T05:41:05;16.20;74.50
70557;DHT22;58107;51.034;3.726;2022-07-06T05:43:31;16.10;74.40
70557;DHT22;58107;51.034;3.726;2022-07-06T05:45:58;16.20;74.40
70557;DHT22;58107;51.034;3.726;2022-07-06T05:48:25;16.30;74.00
70557;DHT22;58107;51.034;3.726;2022-07-06T05:51:11;16.30;74.20
70557;DHT22;58107;51.034;3.726;2022-07-06T05:53:37;16.30;74.00
70557;DHT22;58107;51.034;3.726;2022-07-06T05:56:05;16.40;73.90
70557;DHT22;58107;51.034;3.726;2022-07-06T05:58:32;16.40;73.90
70557;DHT22;58107;51.034;3.726;2022-07-06T06:00:59;16.40;73.70
70557;DHT22;58107;51.034;3.726;2022-07-06T06:03:26;16.50;73.70
70557;DHT22;58107;51.034;3.726;2022-07-06T06:05:53;16.60;73.30
70557;DHT22;58107;51.034;3.726;2022-07-06T06:08:20;16.60;73.30
70557;DHT22;58107;51.034;3.726;2022-07-06T06:10:47;16.60;73.10
70557;DHT22;58107;51.034;3.726;2022-07-06T06:13:14;16.70;73.20
70557;DHT22;58107;51.034;3.726;2022-07-06T06:15:41;16.70;73.10
70557;DHT22;58107;51.034;3.726;2022-07-06T06:18:09;16.70;73.40
70557;DHT22;58107;51.034;3.726;2022-07-06T06:20:36;16.70;73.50
70557;DHT22;58107;51.034;3.726;2022-07-06T06:23:03;16.90;73.20
70557;DHT22;58107;51.034;3.726;2022-07-06T06:25:31;17.10;72.50
70557;DHT22;58107;51.034;3.726;2022-07-06T06:27:59;17.20;71.90
70557;DHT22;58107;51.034;3.726;2022-07-06T06:30:26;17.20;71.60
70557;DHT22;58107;51.034;3.726;2022-07-06T06:33:06;17.30;71.40
70557;DHT22;58107;51.034;3.726;2022-07-06T06:35:33;17.50;70.10
70557;DHT22;58107;51.034;3.726;2022-07-06T06:38:00;17.40;69.60
70557;DHT22;58107;51.034;3.726;2022-07-06T06:40:27;17.30;70.40
70557;DHT22;58107;51.034;3.726;2022-07-06T06:42:54;17.20;70.80
70557;DHT22;58107;51.034;3.726;2022-07-06T06:45:21;17.20;71.00
70557;DHT22;58107;51.034;3.726;2022-07-06T06:47:48;17.40;71.00
70557;DHT22;58107;51.034;3.726;2022-07-06T06:50:15;17.40;70.50
70557;DHT22;58107;51.034;3.726;2022-07-06T06:52:42;17.40;70.50
70557;DHT22;58107;51.034;3.726;2022-07-06T06:55:09;17.40;70.20
70557;DHT22;58107;51.034;3.726;2022-07-06T06:57:36;17.60;70.50
70557;DHT22;58107;51.034;3.726;2022-07-06T07:00:04;17.60;69.30
70557;DHT22;58107;51.034;3.726;2022-07-06T07:02:31;17.60;69.40
70557;DHT22;58107;51.034;3.726;2022-07-06T08:24:37;20.80;55.20
70557;DHT22;58107;51.034;3.726;2022-07-06T08:27:05;20.60;54.60
70557;DHT22;58107;51.034;3.726;2022-07-06T08:29:33;21.10;54.30
70557;DHT22;58107;51.034;3.726;2022-07-06T08:32:01;22.00;51.80
70557;DHT22;58107;51.034;3.726;2022-07-06T08:34:28;21.40;51.50
70557;DHT22;58107;51.034;3.726;2022-07-06T08:36:56;21.50;51.70
70557;DHT22;58107;51.034;3.726;2022-07-06T08:39:24;21.40;51.60
70557;DHT22;58107;51.034;3.726;2022-07-06T08:41:52;21.30;52.10
70557;DHT22;58107;51.034;3.726;2022-07-06T08:44:20;21.30;52.80
70557;DHT22;58107;51.034;3.726;2022-07-06T08:46:49;21.40;52.60
70557;DHT22;58107;51.034;3.726;2022-07-06T08:49:19;21.70;51.60
70557;DHT22;58107;51.034;3.726;2022-07-06T08:51:48;22.60;49.40
70557;DHT22;58107;51.034;3.726;2022-07-06T08:54:16;23.20;47.70
70557;DHT22;58107;51.034;3.726;2022-07-06T08:56:46;23.40;46.90
70557;DHT22;58107;51.034;3.726;2022-07-06T08:59:15;23.20;48.50
70557;DHT22;58107;51.034;3.726;2022-07-06T09:02:02;22.80;49.30
70557;DHT22;58107;51.034;3.726;2022-07-06T09:04:32;22.10;50.40
70557;DHT22;58107;51.034;3.726;2022-07-06T09:07:00;21.70;51.80
70557;DHT22;58107;51.034;3.726;2022-07-06T09:09:30;21.60;51.70
70557;DHT22;58107;51.034;3.726;2022-07-06T09:12:00;21.90;51.30
70557;DHT22;58107;51.034;3.726;2022-07-06T09:14:29;21.90;51.20
70557;DHT22;58107;51.034;3.726;2022-07-06T09:17:04;21.50;51.60
70557;DHT22;58107;51.034;3.726;2022-07-06T09:19:34;21.10;52.90
70557;DHT22;58107;51.034;3.726;2022-07-06T09:22:03;21.20;53.40
70557;DHT22;58107;51.034;3.726;2022-07-06T09:24:31;21.20;53.10
70557;DHT22;58107;51.034;3.726;2022-07-06T09:26:59;21.40;52.70
70557;DHT22;58107;51.034;3.726;2022-07-06T09:29:29;21.80;52.00
70557;DHT22;58107;51.034;3.726;2022-07-06T09:31:59;22.10;50.40
70557;DHT22;58107;51.034;3.726;2022-07-06T09:34:41;21.80;51.10
70557;DHT22;58107;51.034;3.726;2022-07-06T09:37:10;21.80;51.60
70557;DHT22;58107;51.034;3.726;2022-07-06T09:39:38;21.70;52.20
70557;DHT22;58107;51.034;3.726;2022-07-06T09:42:06;21.90;51.40
70557;DHT22;58107;51.034;3.726;2022-07-06T09:44:56;22.00;51.20
70557;DHT22;58107;51.034;3.726;2022-07-06T09:47:26;22.50;49.90
70557;DHT22;58107;51.034;3.726;2022-07-06T09:49:55;22.20;50.10
70557;DHT22;58107;51.034;3.726;2022-07-06T09:52:23;21.80;50.80
70557;DHT22;58107;51.034;3.726;2022-07-06T09:54:51;22.00;50.70
70557;DHT22;58107;51.034;3.726;2022-07-06T09:57:20;21.90;50.90
70557;DHT22;58107;51.034;3.726;2022-07-06T09:59:51;22.00;50.70
70557;DHT22;58107;51.034;3.726;2022-07-06T10:02:20;22.50;49.70
70557;DHT22;58107;51.034;3.726;2022-07-06T10:04:49;23.30;47.50
70557;DHT22;58107;51.034;3.726;2022-07-06T10:07:19;24.10;45.30
70557;DHT22;58107;51.034;3.726;2022-07-06T10:09:48;24.70;43.80
70557;DHT22;58107;51.034;3.726;2022-07-06T10:12:18;24.80;43.70
70557;DHT22;58107;51.034;3.726;2022-07-06T10:14:47;24.30;44.70
70557;DHT22;58107;51.034;3.726;2022-07-06T10:17:16;23.70;46.20
70557;DHT22;58107;51.034;3.726;2022-07-06T10:19:44;23.30;46.60
70557;DHT22;58107;51.034;3.726;2022-07-06T10:22:14;22.90;48.00
70557;DHT22;58107;51.034;3.726;2022-07-06T10:24:45;22.60;48.60
70557;DHT22;58107;51.034;3.726;2022-07-06T10:27:15;22.50;48.80
70557;DHT22;58107;51.034;3.726;2022-07-06T10:29:43;22.40;48.90
70557;DHT22;58107;51.034;3.726;2022-07-06T10:32:11;22.70;48.50
70557;DHT22;58107;51.034;3.726;2022-07-06T10:34:39;23.50;46.50
70557;DHT22;58107;51.034;3.726;2022-07-06T10:37:09;23.70;45.10
70557;DHT22;58107;51.034;3.726;2022-07-06T10:39:39;23.60;45.40
70557;DHT22;58107;51.034;3.726;2022-07-06T10:42:45;23.70;46.10
70557;DHT22;58107;51.034;3.726;2022-07-06T10:45:19;23.30;46.50
70557;DHT22;58107;51.034;3.726;2022-07-06T10:47:44;23.40;46.90
70557;DHT22;58107;51.034;3.726;2022-07-06T10:50:12;23.90;46.40
70557;DHT22;58107;51.034;3.726;2022-07-06T10:52:59;24.80;43.60
70557;DHT22;58107;51.034;3.726;2022-07-06T10:55:37;25.40;42.60
70557;DHT22;58107;51.034;3.726;2022-07-06T10:58:06;25.80;40.80
70557;DHT22;58107;51.034;3.726;2022-07-06T11:00:53;25.40;41.40
70557;DHT22;58107;51.034;3.726;2022-07-06T11:03:36;26.30;39.50
70557;DHT22;58107;51.034;3.726;2022-07-06T11:06:12;25.40;41.50
70557;DHT22;58107;51.034;3.726;2022-07-06T11:08:51;24.80;43.00
70557;DHT22;58107;51.034;3.726;2022-07-06T11:11:24;25.60;41.80
70557;DHT22;58107;51.034;3.726;2022-07-06T11:13:55;25.50;41.30
70557;DHT22;58107;51.034;3.726;2022-07-06T11:16:25;25.70;41.00
70557;DHT22;58107;51.034;3.726;2022-07-06T11:19:10;25.60;41.20
70557;DHT22;58107;51.034;3.726;2022-07-06T11:21:41;25.70;41.10
70557;DHT22;58107;51.034;3.726;2022-07-06T11:24:12;26.60;40.00
70557;DHT22;58107;51.034;3.726;2022-07-06T11:26:43;27.40;37.40
70557;DHT22;58107;51.034;3.726;2022-07-06T11:29:12;27.60;36.80
70557;DHT22;58107;51.034;3.726;2022-07-06T11:31:42;28.00;35.20
70557;DHT22;58107;51.034;3.726;2022-07-06T11:34:12;28.40;33.40
70557;DHT22;58107;51.034;3.726;2022-07-06T11:36:42;27.80;34.10
70557;DHT22;58107;51.034;3.726;2022-07-06T11:39:09;27.30;35.60
70557;DHT22;58107;51.034;3.726;2022-07-06T11:41:38;27.20;36.00
70557;DHT22;58107;51.034;3.726;2022-07-06T11:44:06;28.50;33.10
70557;DHT22;58107;51.034;3.726;2022-07-06T11:46:35;29.90;31.60
70557;DHT22;58107;51.034;3.726;2022-07-06T11:49:07;30.60;30.40
70557;DHT22;58107;51.034;3.726;2022-07-06T11:51:37;30.20;31.20
70557;DHT22;58107;51.034;3.726;2022-07-06T11:54:13;31.80;29.50
70557;DHT22;58107;51.034;3.726;2022-07-06T11:56:52;32.40;28.30
70557;DHT22;58107;51.034;3.726;2022-07-06T11:59:25;31.30;28.10
70557;DHT22;58107;51.034;3.726;2022-07-06T12:04:38;31.70;28.50
70557;DHT22;58107;51.034;3.726;2022-07-06T12:07:08;33.50;27.40
70557;DHT22;58107;51.034;3.726;2022-07-06T12:09:39;33.20;26.90
70557;DHT22;58107;51.034;3.726;2022-07-06T12:12:08;32.30;28.10
70557;DHT22;58107;51.034;3.726;2022-07-06T12:14:37;30.90;29.50
70557;DHT22;58107;51.034;3.726;2022-07-06T12:17:13;30.80;29.90
70557;DHT22;58107;51.034;3.726;2022-07-06T12:19:42;33.20;27.20
70557;DHT22;58107;51.034;3.726;2022-07-06T12:22:11;34.50;25.20
70557;DHT22;58107;51.034;3.726;2022-07-06T12:24:43;33.70;25.80
70557;DHT22;58107;51.034;3.726;2022-07-06T12:27:15;32.70;26.70
70557;DHT22;58107;51.034;3.726;2022-07-06T12:29:44;33.60;25.70
70557;DHT22;58107;51.034;3.726;2022-07-06T12:32:18;34.80;23.60
70557;DHT22;58107;51.034;3.726;2022-07-06T12:34:47;35.20;23.70
70557;DHT22;58107;51.034;3.726;2022-07-06T12:37:14;35.30;23.60
70557;DHT22;58107;51.034;3.726;2022-07-06T12:39:46;34.80;24.60
70557;DHT22;58107;51.034;3.726;2022-07-06T12:42:17;35.00;24.20
70557;DHT22;58107;51.034;3.726;2022-07-06T12:44:49;33.50;25.90
70557;DHT22;58107;51.034;3.726;2022-07-06T12:47:19;33.30;26.70
70557;DHT22;58107;51.034;3.726;2022-07-06T12:49:48;31.50;28.50
70557;DHT22;58107;51.034;3.726;2022-07-06T12:52:16;31.30;29.30
70557;DHT22;58107;51.034;3.726;2022-07-06T12:54:49;30.70;28.00
70557;DHT22;58107;51.034;3.726;2022-07-06T12:57:22;29.20;30.80
70557;DHT22;58107;51.034;3.726;2022-07-06T12:59:57;30.30;30.30
70557;DHT22;58107;51.034;3.726;2022-07-06T13:02:32;32.10;28.50
70557;DHT22;58107;51.034;3.726;2022-07-06T13:05:04;31.60;28.30
70557;DHT22;58107;51.034;3.726;2022-07-06T13:07:34;30.90;29.60
70557;DHT22;58107;51.034;3.726;2022-07-06T13:10:08;31.00;29.10
70557;DHT22;58107;51.034;3.726;2022-07-06T13:12:37;31.30;29.30
70557;DHT22;58107;51.034;3.726;2022-07-06T13:15:09;32.30;27.80
70557;DHT22;58107;51.034;3.726;2022-07-06T13:17:34;32.00;28.20
70557;DHT22;58107;51.034;3.726;2022-07-06T13:20:02;28.60;32.30
70557;DHT22;58107;51.034;3.726;2022-07-06T13:22:30;28.20;34.30
70557;DHT22;58107;51.034;3.726;2022-07-06T13:24:58;29.40;33.60
70557;DHT22;58107;51.034;3.726;2022-07-06T13:27:25;30.20;31.00
70557;DHT22;58107;51.034;3.726;2022-07-06T13:29:53;31.70;29.40
70557;DHT22;58107;51.034;3.726;2022-07-06T13:32:21;32.60;28.30
70557;DHT22;58107;51.034;3.726;2022-07-06T13:34:49;32.80;27.90
70557;DHT22;58107;51.034;3.726;2022-07-06T13:37:24;34.60;26.00
70557;DHT22;58107;51.034;3.726;2022-07-06T13:39:51;36.60;23.90
70557;DHT22;58107;51.034;3.726;2022-07-06T13:42:22;36.20;23.90
70557;DHT22;58107;51.034;3.726;2022-07-06T13:44:50;35.90;23.70
70557;DHT22;58107;51.034;3.726;2022-07-06T13:47:17;34.30;25.60
70557;DHT22;58107;51.034;3.726;2022-07-06T13:49:45;33.80;26.50
70557;DHT22;58107;51.034;3.726;2022-07-06T13:52:13;33.40;26.90
70557;DHT22;58107;51.034;3.726;2022-07-06T13:54:41;34.90;25.90
70557;DHT22;58107;51.034;3.726;2022-07-06T13:57:08;35.40;24.90
70557;DHT22;58107;51.034;3.726;2022-07-06T13:59:36;34.80;24.90
70557;DHT22;58107;51.034;3.726;2022-07-06T14:02:04;31.10;29.30
70557;DHT22;58107;51.034;3.726;2022-07-06T14:04:32;31.40;29.50
70557;DHT22;58107;51.034;3.726;2022-07-06T14:07:00;30.90;30.10
70557;DHT22;58107;51.034;3.726;2022-07-06T14:09:27;30.00;31.10
70557;DHT22;58107;51.034;3.726;2022-07-06T14:11:56;30.10;31.30
70557;DHT22;58107;51.034;3.726;2022-07-06T14:14:24;29.90;31.70
70557;DHT22;58107;51.034;3.726;2022-07-06T14:16:51;29.50;32.40
70557;DHT22;58107;51.034;3.726;2022-07-06T14:19:19;28.70;34.20
70557;DHT22;58107;51.034;3.726;2022-07-06T14:21:49;29.10;33.60
70557;DHT22;58107;51.034;3.726;2022-07-06T14:24:16;28.40;34.80
70557;DHT22;58107;51.034;3.726;2022-07-06T14:26:44;27.90;35.60
70557;DHT22;58107;51.034;3.726;2022-07-06T14:29:11;28.10;35.60
70557;DHT22;58107;51.034;3.726;2022-07-06T14:31:39;28.10;35.80
70557;DHT22;58107;51.034;3.726;2022-07-06T14:34:07;28.00;36.00
70557;DHT22;58107;51.034;3.726;2022-07-06T14:36:36;27.80;36.40
70557;DHT22;58107;51.034;3.726;2022-07-06T14:39:04;27.30;37.60
70557;DHT22;58107;51.034;3.726;2022-07-06T14:41:32;27.20;38.50
70557;DHT22;58107;51.034;3.726;2022-07-06T14:44:01;26.80;39.60
70557;DHT22;58107;51.034;3.726;2022-07-06T14:46:29;26.40;41.00
70557;DHT22;58107;51.034;3.726;2022-07-06T14:48:56;26.30;41.40
70557;DHT22;58107;51.034;3.726;2022-07-06T14:51:24;26.30;41.50
70557;DHT22;58107;51.034;3.726;2022-07-06T14:53:52;26.40;42.10
70557;DHT22;58107;51.034;3.726;2022-07-06T14:56:20;26.30;41.80
70557;DHT22;58107;51.034;3.726;2022-07-06T14:58:47;26.10;42.50
70557;DHT22;58107;51.034;3.726;2022-07-06T15:01:15;26.00;43.60
70557;DHT22;58107;51.034;3.726;2022-07-06T15:03:43;26.10;42.70
70557;DHT22;58107;51.034;3.726;2022-07-06T15:06:15;26.20;42.40
70557;DHT22;58107;51.034;3.726;2022-07-06T15:08:42;26.50;41.70
70557;DHT22;58107;51.034;3.726;2022-07-06T15:11:10;26.50;41.80
70557;DHT22;58107;51.034;3.726;2022-07-06T15:13:38;26.50;42.10
70557;DHT22;58107;51.034;3.726;2022-07-06T15:16:06;26.40;42.10
70557;DHT22;58107;51.034;3.726;2022-07-06T15:18:33;26.00;41.50
70557;DHT22;58107;51.034;3.726;2022-07-06T15:21:01;25.70;42.90
70557;DHT22;58107;51.034;3.726;2022-07-06T15:23:29;25.90;41.90
70557;DHT22;58107;51.034;3.726;2022-07-06T15:25:57;26.20;40.70
70557;DHT22;58107;51.034;3.726;2022-07-06T15:28:24;26.40;40.10
70557;DHT22;58107;51.034;3.726;2022-07-06T15:30:53;26.50;37.60
70557;DHT22;58107;51.034;3.726;2022-07-06T15:33:21;26.70;37.30
70557;DHT22;58107;51.034;3.726;2022-07-06T15:35:49;26.30;37.50
70557;DHT22;58107;51.034;3.726;2022-07-06T15:38:17;25.90;38.60
70557;DHT22;58107;51.034;3.726;2022-07-06T15:41:05;25.80;39.40
70557;DHT22;58107;51.034;3.726;2022-07-06T15:43:33;25.80;38.80
70557;DHT22;58107;51.034;3.726;2022-07-06T15:46:02;25.70;39.20
70557;DHT22;58107;51.034;3.726;2022-07-06T15:48:30;25.70;38.90
70557;DHT22;58107;51.034;3.726;2022-07-06T15:50:59;25.80;38.80
70557;DHT22;58107;51.034;3.726;2022-07-06T15:53:27;25.60;38.90
70557;DHT22;58107;51.034;3.726;2022-07-06T15:55:56;25.50;39.40
70557;DHT22;58107;51.034;3.726;2022-07-06T15:58:23;25.30;39.70
70557;DHT22;58107;51.034;3.726;2022-07-06T16:00:51;25.40;39.70
70557;DHT22;58107;51.034;3.726;2022-07-06T16:03:20;25.50;39.20
70557;DHT22;58107;51.034;3.726;2022-07-06T16:05:49;25.50;39.50
70557;DHT22;58107;51.034;3.726;2022-07-06T16:08:17;25.40;39.60
70557;DHT22;58107;51.034;3.726;2022-07-06T16:10:45;25.40;39.10
70557;DHT22;58107;51.034;3.726;2022-07-06T16:13:12;25.40;39.60
70557;DHT22;58107;51.034;3.726;2022-07-06T16:15:40;25.20;39.00
70557;DHT22;58107;51.034;3.726;2022-07-06T16:18:08;25.10;38.40
70557;DHT22;58107;51.034;3.726;2022-07-06T16:20:35;25.40;37.50
70557;DHT22;58107;51.034;3.726;2022-07-06T16:23:03;25.30;37.30
70557;DHT22;58107;51.034;3.726;2022-07-06T16:25:32;25.00;38.20
70557;DHT22;58107;51.034;3.726;2022-07-06T16:28:00;24.80;39.00
70557;DHT22;58107;51.034;3.726;2022-07-06T16:30:28;24.80;40.00
70557;DHT22;58107;51.034;3.726;2022-07-06T16:32:56;24.50;41.40
70557;DHT22;58107;51.034;3.726;2022-07-06T16:35:24;24.20;42.40
70557;DHT22;58107;51.034;3.726;2022-07-06T16:37:51;24.30;42.90
70557;DHT22;58107;51.034;3.726;2022-07-06T16:40:21;24.50;42.90
70557;DHT22;58107;51.034;3.726;2022-07-06T16:42:49;24.90;42.60
70557;DHT22;58107;51.034;3.726;2022-07-06T16:45:16;25.10;42.40
70557;DHT22;58107;51.034;3.726;2022-07-06T16:47:44;24.90;43.60
70557;DHT22;58107;51.034;3.726;2022-07-06T16:50:12;25.00;44.10
70557;DHT22;58107;51.034;3.726;2022-07-06T16:52:40;25.30;44.00
70557;DHT22;58107;51.034;3.726;2022-07-06T16:55:08;25.20;44.40
70557;DHT22;58107;51.034;3.726;2022-07-06T16:57:36;25.20;44.80
70557;DHT22;58107;51.034;3.726;2022-07-06T17:00:05;25.30;44.90
70557;DHT22;58107;51.034;3.726;2022-07-06T17:02:32;25.10;45.80